Аэропорт: Богашево. Томск

ICAO: UNTT

METAR:
2019-11-21 01:30:00
UNTT 210130Z 22007MPS 9000 -SHSN SCT021CB M25/M28 Q1027 R21/490240 NOSIG RMK QFE755
METAR:
2019-11-20 22:59:00
TAF UNTT 202259Z 2100/2109 21005G12MPS 9999 SCT011 SCT020CB TEMPO 2100/2102 2200 -SHSN FEW006 BKN011CB TEMPO 2102/2109 3100 -SHSN BKN011 BKN020CB